createdAt,value
2023-05-07T00:00:12.783Z,52.19
2023-05-07T00:02:40.140Z,52.73
2023-05-07T00:05:08.777Z,52.67
2023-05-07T00:07:36.727Z,53.33
2023-05-07T00:10:05.297Z,52.90
2023-05-07T00:12:34.804Z,53.48
2023-05-07T00:15:05.214Z,54.72
2023-05-07T00:17:34.536Z,54.02
2023-05-07T00:20:02.724Z,54.03
2023-05-07T00:22:31.388Z,54.03
2023-05-07T00:24:58.461Z,55.19
2023-05-07T00:27:26.292Z,54.39
2023-05-07T00:29:56.636Z,54.53
2023-05-07T00:32:24.743Z,54.82
2023-05-07T00:34:52.199Z,54.71
2023-05-07T00:37:19.470Z,54.63
2023-05-07T00:39:46.503Z,55.20
2023-05-07T00:42:13.750Z,55.16
2023-05-07T00:44:40.903Z,55.18
2023-05-07T00:47:08.522Z,56.73
2023-05-07T00:49:43.947Z,56.35
2023-05-07T00:52:18.406Z,56.16
2023-05-07T00:54:45.935Z,56.49
2023-05-07T00:57:13.284Z,56.81
2023-05-07T00:59:41.922Z,57.90
2023-05-07T01:02:09.349Z,57.48
2023-05-07T01:04:36.941Z,57.52
2023-05-07T01:07:05.927Z,57.83
2023-05-07T01:09:33.256Z,57.89
2023-05-07T01:12:00.899Z,58.34
2023-05-07T01:14:28.460Z,59.18
2023-05-07T01:16:56.020Z,59.79
2023-05-07T01:19:25.684Z,60.41
2023-05-07T01:22:01.347Z,59.30
2023-05-07T01:24:31.293Z,59.35
2023-05-07T01:26:58.579Z,59.69
2023-05-07T01:29:25.904Z,59.66
2023-05-07T01:31:54.230Z,59.89
2023-05-07T01:34:23.040Z,60.19
2023-05-07T01:36:50.974Z,59.65
2023-05-07T01:39:18.502Z,59.82
2023-05-07T01:41:47.315Z,59.13
2023-05-07T01:44:16.140Z,58.98
2023-05-07T01:46:43.775Z,58.72
2023-05-07T01:49:11.490Z,58.57
2023-05-07T01:51:38.771Z,58.10
2023-05-07T01:54:06.501Z,57.51
2023-05-07T01:56:34.885Z,57.44
2023-05-07T01:59:03.259Z,57.35
2023-05-07T02:01:31.152Z,57.37
2023-05-07T02:03:58.840Z,57.43
2023-05-07T02:06:28.711Z,56.79
2023-05-07T02:09:00.789Z,56.84
2023-05-07T02:11:28.866Z,56.77
2023-05-07T02:13:55.914Z,56.77
2023-05-07T02:16:24.461Z,56.70
2023-05-07T02:18:52.474Z,56.18
2023-05-07T02:21:19.865Z,56.25
2023-05-07T02:23:46.996Z,56.00
2023-05-07T02:26:14.218Z,55.69
2023-05-07T02:28:41.369Z,55.31
2023-05-07T02:31:08.575Z,54.89
2023-05-07T02:33:37.608Z,54.32
2023-05-07T02:36:11.849Z,53.47
2023-05-07T02:38:51.411Z,53.19
2023-05-07T02:41:20.845Z,52.56
2023-05-07T02:43:50.305Z,51.63
2023-05-07T02:46:18.433Z,51.58
2023-05-07T02:48:50.283Z,51.70
2023-05-07T02:51:23.320Z,51.95
2023-05-07T02:53:52.309Z,52.06
2023-05-07T02:56:19.585Z,52.61
2023-05-07T02:58:46.764Z,53.85
2023-05-07T03:01:16.065Z,53.86
2023-05-07T03:04:03.562Z,54.73
2023-05-07T03:06:30.836Z,55.32
2023-05-07T03:08:57.842Z,55.45
2023-05-07T03:11:27.340Z,55.61
2023-05-07T03:13:54.503Z,55.69
2023-05-07T03:16:22.783Z,56.52
2023-05-07T03:18:50.018Z,56.15
2023-05-07T03:21:17.246Z,55.85
2023-05-07T03:23:45.009Z,55.54
2023-05-07T03:26:12.328Z,55.13
2023-05-07T03:28:39.704Z,55.63
2023-05-07T03:31:11.314Z,55.53
2023-05-07T03:33:50.387Z,55.06
2023-05-07T03:36:17.374Z,54.80
2023-05-07T03:38:44.437Z,54.69
2023-05-07T03:41:11.859Z,54.42
2023-05-07T03:43:39.672Z,53.68
2023-05-07T03:46:10.509Z,53.27
2023-05-07T03:48:37.623Z,53.38
2023-05-07T03:51:05.193Z,53.53
2023-05-07T03:53:34.027Z,53.15
2023-05-07T03:56:01.361Z,52.83
2023-05-07T03:58:36.110Z,53.45
2023-05-07T04:01:08.742Z,54.01
2023-05-07T04:03:36.262Z,55.43
2023-05-07T04:06:04.873Z,55.36
2023-05-07T04:08:34.929Z,55.40
2023-05-07T04:11:02.459Z,55.42
2023-05-07T04:13:32.473Z,55.71
2023-05-07T04:16:03.689Z,56.63
2023-05-07T04:18:31.008Z,56.98
2023-05-07T04:20:58.598Z,57.67
2023-05-07T04:23:25.865Z,57.58
2023-05-07T04:25:53.729Z,57.54
2023-05-07T04:28:25.675Z,57.46
2023-05-07T04:30:52.948Z,56.83
2023-05-07T04:33:21.700Z,56.56
2023-05-07T04:35:50.605Z,56.21
2023-05-07T04:38:17.658Z,56.18
2023-05-07T04:40:46.095Z,55.77
2023-05-07T04:43:17.334Z,55.90
2023-05-07T04:45:51.992Z,55.38
2023-05-07T04:48:21.595Z,55.39
2023-05-07T04:50:53.974Z,55.15
2023-05-07T04:53:22.587Z,55.05
2023-05-07T04:55:56.824Z,55.04
2023-05-07T04:58:25.334Z,54.92
2023-05-07T05:00:53.323Z,54.64
2023-05-07T05:03:23.504Z,54.58
2023-05-07T05:05:52.747Z,54.64
2023-05-07T05:08:21.191Z,54.34
2023-05-07T05:10:50.009Z,54.20
2023-05-07T05:13:17.278Z,54.09
2023-05-07T05:15:44.680Z,53.38
2023-05-07T05:18:11.986Z,53.73
2023-05-07T05:20:40.157Z,53.55
2023-05-07T05:23:09.243Z,52.86
2023-05-07T05:25:38.446Z,52.66
2023-05-07T05:28:05.847Z,51.92
2023-05-07T05:30:34.587Z,50.95
2023-05-07T05:33:02.787Z,50.66
2023-05-07T05:35:30.949Z,50.33
2023-05-07T05:37:59.262Z,50.02
2023-05-07T05:40:26.336Z,49.96
2023-05-07T05:42:54.172Z,49.49
2023-05-07T05:45:21.377Z,49.50
2023-05-07T05:50:15.452Z,50.37
2023-05-07T05:52:43.207Z,49.71
2023-05-07T05:55:10.873Z,49.66
2023-05-07T05:57:39.201Z,49.87
2023-05-07T06:00:07.605Z,49.49
2023-05-07T06:02:46.073Z,49.93
2023-05-07T06:05:18.284Z,49.87
2023-05-07T06:07:48.687Z,49.70
2023-05-07T06:10:16.487Z,49.62
2023-05-07T06:12:43.654Z,49.68
2023-05-07T06:15:11.634Z,49.24
2023-05-07T06:17:39.212Z,49.20
2023-05-07T06:20:07.932Z,49.26
2023-05-07T06:22:35.101Z,49.35
2023-05-07T06:25:02.440Z,49.61
2023-05-07T06:27:29.581Z,50.46
2023-05-07T06:29:57.482Z,49.71
2023-05-07T06:32:24.573Z,49.76
2023-05-07T06:34:52.774Z,49.92
2023-05-07T06:37:20.057Z,50.16
2023-05-07T06:39:53.246Z,50.27
2023-05-07T06:42:20.748Z,50.41
2023-05-07T06:44:49.353Z,51.21
2023-05-07T06:47:18.340Z,51.63
2023-05-07T06:49:49.858Z,51.98
2023-05-07T06:52:19.077Z,52.04
2023-05-07T06:54:47.862Z,52.27
2023-05-07T06:57:17.429Z,51.96
2023-05-07T06:59:44.664Z,53.04
2023-05-07T07:02:12.179Z,52.51
2023-05-07T07:04:39.790Z,52.79
2023-05-07T07:07:10.256Z,53.16
2023-05-07T07:09:37.717Z,53.26
2023-05-07T07:12:06.460Z,53.24
2023-05-07T07:14:35.344Z,53.71
2023-05-07T07:17:02.569Z,53.87
2023-05-07T07:19:29.919Z,53.64
2023-05-07T07:21:58.161Z,53.33
2023-05-07T07:24:25.265Z,53.22
2023-05-07T07:26:56.919Z,53.96
2023-05-07T07:29:27.913Z,53.29
2023-05-07T07:31:56.335Z,53.53
2023-05-07T07:34:24.454Z,53.54
2023-05-07T07:36:51.869Z,53.71
2023-05-07T07:39:20.290Z,53.37
2023-05-07T07:41:50.531Z,53.94
2023-05-07T07:44:19.304Z,53.67
2023-05-07T07:46:52.061Z,53.98
2023-05-07T07:49:21.047Z,54.00
2023-05-07T07:51:48.606Z,53.94
2023-05-07T07:54:16.933Z,55.14
2023-05-07T07:56:44.621Z,54.42
2023-05-07T07:59:15.007Z,54.09
2023-05-07T08:01:42.869Z,54.71
2023-05-07T08:04:10.419Z,54.43
2023-05-07T08:06:41.716Z,54.27
2023-05-07T08:09:10.572Z,53.96
2023-05-07T08:11:40.344Z,53.68
2023-05-07T08:14:07.865Z,52.97
2023-05-07T08:16:35.769Z,53.40
2023-05-07T08:19:03.911Z,53.18
2023-05-07T08:21:34.308Z,53.13
2023-05-07T08:24:02.717Z,52.58
2023-05-07T08:26:30.183Z,52.89
2023-05-07T08:28:57.551Z,52.63
2023-05-07T08:31:25.492Z,52.50
2023-05-07T08:33:52.940Z,52.59
2023-05-07T08:36:20.492Z,52.53
2023-05-07T08:38:48.675Z,51.70
2023-05-07T08:41:19.140Z,53.05
2023-05-07T08:43:51.005Z,52.41
2023-05-07T08:46:23.030Z,52.08
2023-05-07T08:48:54.990Z,51.77
2023-05-07T08:51:23.136Z,51.98
2023-05-07T08:53:51.461Z,51.05
2023-05-07T08:56:26.356Z,51.10
2023-05-07T08:59:00.224Z,50.32
2023-05-07T09:01:29.661Z,50.15
2023-05-07T09:03:58.993Z,50.49
2023-05-07T09:06:28.767Z,50.88
2023-05-07T09:08:56.843Z,50.73
2023-05-07T09:11:28.147Z,50.61
2023-05-07T09:14:02.810Z,50.25
2023-05-07T09:16:35.760Z,49.89
2023-05-07T09:19:03.987Z,49.07
2023-05-07T09:21:31.363Z,47.98
2023-05-07T09:24:01.785Z,47.76
2023-05-07T09:26:36.120Z,47.43
2023-05-07T09:29:05.595Z,47.12
2023-05-07T09:31:32.983Z,47.80
2023-05-07T09:34:02.179Z,48.10
2023-05-07T09:36:34.269Z,47.37
2023-05-07T09:39:02.909Z,47.37
2023-05-07T09:41:33.758Z,46.32
2023-05-07T09:44:13.574Z,45.80
2023-05-07T09:46:48.586Z,45.16
2023-05-07T09:49:26.316Z,43.75
2023-05-07T09:52:02.575Z,44.03
2023-05-07T09:54:39.174Z,43.45
2023-05-07T09:57:10.775Z,43.92
2023-05-07T09:59:39.961Z,44.84
2023-05-07T10:02:11.788Z,44.70
2023-05-07T10:04:50.378Z,45.91
2023-05-07T10:07:22.672Z,44.91
2023-05-07T10:09:54.726Z,45.50
2023-05-07T10:12:40.204Z,46.40
2023-05-07T10:15:14.272Z,46.88
2023-05-07T10:17:46.191Z,48.11
2023-05-07T10:20:14.230Z,47.76
2023-05-07T10:22:48.858Z,47.26
2023-05-07T10:25:24.492Z,47.42
2023-05-07T10:27:53.374Z,47.27
2023-05-07T10:30:47.805Z,47.23
2023-05-07T10:33:18.697Z,46.85
2023-05-07T10:35:52.285Z,47.46
2023-05-07T10:38:20.227Z,47.73
2023-05-07T10:40:48.698Z,48.26
2023-05-07T10:43:19.384Z,47.42
2023-05-07T10:46:17.972Z,47.24
2023-05-07T10:49:09.997Z,48.41
2023-05-07T10:52:27.878Z,46.86
2023-05-07T10:55:20.134Z,48.03
2023-05-07T10:58:32.409Z,48.24
2023-05-07T11:01:11.310Z,48.27
2023-05-07T11:04:16.973Z,47.40
2023-05-07T11:07:10.745Z,48.53
2023-05-07T11:09:53.545Z,48.64
2023-05-07T11:12:38.227Z,48.55
2023-05-07T11:15:17.188Z,48.57
2023-05-07T11:18:01.035Z,48.50
2023-05-07T11:21:00.345Z,47.92
2023-05-07T11:23:48.564Z,49.80
2023-05-07T11:26:22.876Z,49.39
2023-05-07T11:28:50.830Z,50.36
2023-05-07T11:31:25.600Z,49.97
2023-05-07T11:33:54.737Z,48.82
2023-05-07T11:36:24.770Z,48.56
2023-05-07T11:38:54.766Z,48.95
2023-05-07T11:41:23.084Z,48.04
2023-05-07T11:44:00.844Z,48.71
2023-05-07T11:46:29.016Z,47.83
2023-05-07T11:48:57.377Z,47.52
2023-05-07T11:51:27.229Z,47.12
2023-05-07T11:53:54.905Z,47.44
2023-05-07T11:56:22.481Z,47.82
2023-05-07T11:58:50.811Z,47.10
2023-05-07T12:01:17.997Z,46.86
2023-05-07T12:03:47.396Z,47.61
2023-05-07T12:06:17.037Z,46.88
2023-05-07T12:08:47.938Z,47.78
2023-05-07T12:11:25.160Z,47.34
2023-05-07T12:13:53.128Z,47.27
2023-05-07T12:16:21.072Z,46.95
2023-05-07T12:18:48.946Z,47.90
2023-05-07T12:21:18.430Z,46.55
2023-05-07T12:23:46.276Z,45.67
2023-05-07T12:26:13.505Z,45.40
2023-05-07T12:28:41.136Z,44.10
2023-05-07T12:31:10.030Z,44.92
2023-05-07T12:33:37.699Z,44.52
2023-05-07T12:36:08.695Z,46.41
2023-05-07T12:38:41.194Z,46.42
2023-05-07T12:41:10.386Z,45.92
2023-05-07T12:43:37.879Z,46.09
2023-05-07T12:46:07.497Z,45.79
2023-05-07T12:48:35.168Z,45.49
2023-05-07T12:51:03.478Z,45.82
2023-05-07T12:53:32.460Z,47.05
2023-05-07T12:56:01.090Z,45.56
2023-05-07T12:58:30.838Z,45.60
2023-05-07T13:01:01.880Z,47.47
2023-05-07T13:03:37.850Z,48.15
2023-05-07T13:06:13.355Z,47.30
2023-05-07T13:08:46.567Z,50.80
2023-05-07T13:11:14.464Z,51.94
2023-05-07T13:13:43.012Z,52.60
2023-05-07T13:16:12.864Z,51.92
2023-05-07T13:18:42.051Z,51.10
2023-05-07T13:21:09.223Z,51.25
2023-05-07T13:23:36.327Z,52.04
2023-05-07T13:26:08.654Z,52.24
2023-05-07T13:28:42.205Z,51.01
2023-05-07T13:31:09.371Z,51.01
2023-05-07T13:33:36.813Z,50.18
2023-05-07T13:36:06.066Z,50.74
2023-05-07T13:38:33.282Z,50.21
2023-05-07T13:41:01.656Z,50.59
2023-05-07T13:43:28.884Z,50.64
2023-05-07T13:45:56.152Z,50.67
2023-05-07T13:48:23.387Z,49.62
2023-05-07T13:50:50.389Z,48.24
2023-05-07T13:53:19.523Z,49.11
2023-05-07T13:55:46.687Z,48.18
2023-05-07T13:58:14.806Z,48.76
2023-05-07T14:00:41.902Z,49.73
2023-05-07T14:03:12.432Z,49.21
2023-05-07T14:05:39.874Z,48.52
2023-05-07T14:08:07.093Z,48.88
2023-05-07T14:10:38.445Z,47.01
2023-05-07T14:13:05.669Z,47.28
2023-05-07T14:15:33.936Z,47.14
2023-05-07T14:18:01.797Z,46.60
2023-05-07T14:20:29.558Z,46.33
2023-05-07T14:22:58.263Z,45.58
2023-05-07T14:25:25.581Z,45.54
2023-05-07T14:27:52.920Z,45.08
2023-05-07T14:30:20.000Z,45.16
2023-05-07T14:32:47.066Z,45.92
2023-05-07T14:35:14.498Z,46.03
2023-05-07T14:37:41.918Z,46.38
2023-05-07T14:40:12.918Z,46.41
2023-05-07T14:42:41.467Z,47.02
2023-05-07T14:45:09.640Z,46.49
2023-05-07T14:47:36.785Z,46.52
2023-05-07T14:50:04.025Z,46.11
2023-05-07T14:52:30.999Z,46.39
2023-05-07T14:54:58.148Z,47.00
2023-05-07T14:57:25.493Z,46.69
2023-05-07T14:59:52.625Z,47.19
2023-05-07T15:02:21.395Z,46.44
2023-05-07T15:04:49.864Z,45.95
2023-05-07T15:07:17.128Z,45.91
2023-05-07T15:09:44.545Z,46.10
2023-05-07T15:12:12.843Z,46.08
2023-05-07T15:14:40.401Z,46.90
2023-05-07T15:17:08.583Z,47.05
2023-05-07T15:19:35.710Z,47.30
2023-05-07T15:22:05.539Z,47.04
2023-05-07T15:24:32.879Z,47.48
2023-05-07T15:27:00.336Z,47.35
2023-05-07T15:29:27.432Z,46.61
2023-05-07T15:31:54.790Z,48.03
2023-05-07T15:34:23.654Z,46.95
2023-05-07T15:36:50.993Z,47.57
2023-05-07T15:39:18.677Z,47.29
2023-05-07T15:41:46.553Z,46.91
2023-05-07T15:44:13.717Z,47.47
2023-05-07T15:46:40.995Z,47.07
2023-05-07T15:49:08.664Z,47.80
2023-05-07T15:51:36.840Z,48.29
2023-05-07T15:54:04.215Z,47.93
2023-05-07T15:56:33.997Z,48.52
2023-05-07T15:59:01.382Z,48.38
2023-05-07T16:01:29.567Z,48.50
2023-05-07T16:03:57.185Z,48.41
2023-05-07T16:06:28.065Z,48.49
2023-05-07T16:08:55.177Z,47.67
2023-05-07T16:11:26.800Z,47.53
2023-05-07T16:13:54.218Z,47.76
2023-05-07T16:16:21.864Z,47.32
2023-05-07T16:18:55.328Z,47.41
2023-05-07T16:21:22.415Z,47.38
2023-05-07T16:23:50.987Z,47.68
2023-05-07T16:26:18.617Z,49.18
2023-05-07T16:28:45.688Z,48.74
2023-05-07T16:31:12.939Z,49.06
2023-05-07T16:33:40.064Z,49.11
2023-05-07T16:36:07.507Z,49.68
2023-05-07T16:38:34.834Z,49.14
2023-05-07T16:41:02.344Z,49.58
2023-05-07T16:43:29.549Z,49.38
2023-05-07T16:45:56.728Z,49.27
2023-05-07T16:48:23.922Z,49.14
2023-05-07T16:50:51.150Z,49.17
2023-05-07T16:53:18.280Z,49.26
2023-05-07T16:55:45.497Z,48.94
2023-05-07T16:58:13.141Z,49.31
2023-05-07T17:00:49.848Z,49.03
2023-05-07T17:03:17.968Z,48.74
2023-05-07T17:05:45.351Z,48.97
2023-05-07T17:08:16.548Z,48.72
2023-05-07T17:10:43.803Z,48.83
2023-05-07T17:13:10.930Z,48.61
2023-05-07T17:15:38.190Z,49.15
2023-05-07T17:18:05.344Z,48.77
2023-05-07T17:20:32.686Z,49.09
2023-05-07T17:22:59.759Z,49.52
2023-05-07T17:25:26.817Z,48.67
2023-05-07T17:27:53.958Z,48.81
2023-05-07T17:30:21.223Z,48.49
2023-05-07T17:32:48.349Z,48.68
2023-05-07T17:35:15.656Z,49.76
2023-05-07T17:37:47.283Z,49.30
2023-05-07T17:40:14.593Z,49.06
2023-05-07T17:42:41.683Z,49.15
2023-05-07T17:45:09.422Z,49.63
2023-05-07T17:47:36.913Z,49.70
2023-05-07T17:50:09.430Z,49.64
2023-05-07T17:52:41.735Z,49.74
2023-05-07T17:55:09.464Z,49.16
2023-05-07T17:57:37.399Z,48.90
2023-05-07T18:00:08.213Z,47.69
2023-05-07T18:02:35.721Z,46.56
2023-05-07T18:05:03.792Z,45.73
2023-05-07T18:07:30.895Z,45.32
2023-05-07T18:09:58.286Z,45.59
2023-05-07T18:12:27.711Z,45.87
2023-05-07T18:14:58.585Z,42.52
2023-05-07T18:17:28.797Z,40.21
2023-05-07T18:19:56.437Z,40.03
2023-05-07T18:22:32.970Z,39.77
2023-05-07T18:25:01.847Z,41.57
2023-05-07T18:27:37.231Z,45.37
2023-05-07T18:30:04.889Z,48.23
2023-05-07T18:32:32.646Z,50.35
2023-05-07T18:35:00.501Z,51.83
2023-05-07T18:37:31.512Z,51.54
2023-05-07T18:40:02.035Z,51.92
2023-05-07T18:42:33.423Z,53.05
2023-05-07T18:45:02.000Z,52.10
2023-05-07T18:47:32.239Z,51.59
2023-05-07T18:50:04.642Z,52.84
2023-05-07T18:52:35.398Z,52.05
2023-05-07T18:55:05.140Z,52.69
2023-05-07T18:57:32.275Z,52.16
2023-05-07T18:59:59.398Z,52.37
2023-05-07T19:02:26.598Z,52.28
2023-05-07T19:04:53.797Z,52.77
2023-05-07T19:07:21.158Z,51.97
2023-05-07T19:10:01.211Z,52.68
2023-05-07T19:12:31.204Z,51.33
2023-05-07T19:14:58.505Z,52.07
2023-05-07T19:17:25.687Z,51.71
2023-05-07T19:19:53.143Z,52.05
2023-05-07T19:22:20.189Z,52.19
2023-05-07T19:24:47.542Z,52.81
2023-05-07T19:27:14.864Z,50.72
2023-05-07T19:29:44.152Z,51.36
2023-05-07T19:32:11.389Z,52.06
2023-05-07T19:34:40.159Z,52.25
2023-05-07T19:37:07.321Z,53.36
2023-05-07T19:39:34.625Z,52.04
2023-05-07T19:42:02.056Z,51.88
2023-05-07T19:44:29.761Z,52.32
2023-05-07T19:46:59.451Z,51.66
2023-05-07T19:49:27.190Z,52.32
2023-05-07T19:51:54.862Z,52.30
2023-05-07T19:54:22.770Z,52.37
2023-05-07T19:56:50.069Z,52.66
2023-05-07T19:59:17.361Z,53.01
2023-05-07T20:01:47.739Z,52.74
2023-05-07T20:04:15.606Z,51.93
2023-05-07T20:06:44.670Z,51.34
2023-05-07T20:09:13.099Z,52.13
2023-05-07T20:11:44.871Z,52.18
2023-05-07T20:14:13.394Z,52.66
2023-05-07T20:16:41.285Z,52.45
2023-05-07T20:19:11.424Z,51.74
2023-05-07T20:21:38.534Z,52.05
2023-05-07T20:24:08.514Z,52.78
2023-05-07T20:29:03.630Z,52.84
2023-05-07T20:31:32.501Z,52.57
2023-05-07T20:33:59.964Z,53.01
2023-05-07T20:36:27.012Z,52.39
2023-05-07T20:38:54.161Z,52.17
2023-05-07T20:41:25.681Z,52.55
2023-05-07T20:43:52.793Z,52.98
2023-05-07T20:46:23.388Z,52.86
2023-05-07T20:48:50.961Z,52.75
2023-05-07T20:51:18.315Z,53.50
2023-05-07T20:53:47.515Z,52.23
2023-05-07T20:56:15.769Z,51.19
2023-05-07T20:58:42.955Z,51.57
2023-05-07T21:01:10.183Z,51.61
2023-05-07T21:03:37.372Z,50.96
2023-05-07T21:06:04.685Z,50.95
2023-05-07T21:08:32.664Z,50.53
2023-05-07T21:10:59.720Z,51.01
2023-05-07T21:13:27.602Z,52.42
2023-05-07T21:15:54.791Z,54.02
2023-05-07T21:18:21.946Z,53.25
2023-05-07T21:20:49.111Z,52.81
2023-05-07T21:23:16.445Z,53.08
2023-05-07T21:25:47.310Z,53.56
2023-05-07T21:28:14.586Z,53.77
2023-05-07T21:30:41.708Z,54.21
2023-05-07T21:33:09.163Z,54.20
2023-05-07T21:35:36.847Z,54.62
2023-05-07T21:38:04.213Z,53.61
2023-05-07T21:40:31.746Z,53.99
2023-05-07T21:43:00.580Z,55.01
2023-05-07T21:45:27.958Z,54.54
2023-05-07T21:47:55.648Z,54.16
2023-05-07T21:50:22.847Z,54.29
2023-05-07T21:52:50.368Z,54.90
2023-05-07T21:55:20.841Z,55.42
2023-05-07T21:58:01.156Z,55.78
2023-05-07T22:00:32.117Z,54.17
2023-05-07T22:02:59.276Z,54.09
2023-05-07T22:05:26.382Z,53.68
2023-05-07T22:07:53.463Z,53.54
2023-05-07T22:10:23.131Z,54.01
2023-05-07T22:12:50.483Z,53.34
2023-05-07T22:15:18.003Z,54.22
2023-05-07T22:17:46.416Z,54.44
2023-05-07T22:20:13.746Z,54.51
2023-05-07T22:22:53.409Z,56.28
2023-05-07T22:25:24.909Z,55.28
2023-05-07T22:27:52.204Z,55.54
2023-05-07T22:30:19.378Z,55.42
2023-05-07T22:32:46.641Z,55.59
2023-05-07T22:35:14.138Z,55.34
2023-05-07T22:37:41.388Z,55.90
2023-05-07T22:40:09.114Z,55.81
2023-05-07T22:42:36.346Z,56.77
2023-05-07T22:45:03.541Z,55.36
2023-05-07T22:47:33.891Z,54.70
2023-05-07T22:50:01.174Z,55.68
2023-05-07T22:52:28.498Z,55.82
2023-05-07T22:54:55.778Z,55.71
2023-05-07T22:57:22.992Z,56.03
2023-05-07T22:59:55.249Z,55.64
2023-05-07T23:02:23.051Z,55.80
2023-05-07T23:04:52.973Z,55.73
2023-05-07T23:07:20.249Z,55.35
2023-05-07T23:09:47.426Z,55.89
2023-05-07T23:12:14.474Z,55.78
2023-05-07T23:14:41.736Z,55.71
2023-05-07T23:17:08.903Z,55.39
2023-05-07T23:19:37.165Z,54.97
2023-05-07T23:22:04.473Z,54.69
2023-05-07T23:24:31.587Z,54.36
2023-05-07T23:26:58.725Z,54.91
2023-05-07T23:29:25.950Z,54.61
2023-05-07T23:31:53.063Z,54.49
2023-05-07T23:34:24.164Z,55.28
2023-05-07T23:36:51.911Z,55.02
2023-05-07T23:39:19.680Z,55.83
2023-05-07T23:41:47.019Z,55.21
2023-05-07T23:44:16.668Z,55.13
2023-05-07T23:46:44.771Z,55.12
2023-05-07T23:49:12.127Z,55.62
2023-05-07T23:51:39.429Z,55.63
2023-05-07T23:54:06.883Z,55.41
2023-05-07T23:56:34.210Z,55.50
2023-05-07T23:59:01.329Z,54.55
